Atkinson, Maine
Current Conditions -  °F | °C
As of 5:53 AM on Sunday 21 Dec 2014 (Local Time) from KBGR Reporting Station
Light Snow Light Snow  
Wind Chill: 18°   Ceiling: 3000
Heat Index: 25°   Visibility: 9mi
Dew Point: 21°   Wind: 6mph
Humidity: 85%   Direction: 360°N
Pressure: 30.35"   Gusts: NA
Location:  45.2129°N, 69.1615°W
Report Text: KBGR 211053Z 36005KT 9SM -SN OVC030 M04/M06 A3035 RMK AO2 SLP280 P0000 T10391061
Loading
Personal Weather Stations






























Interactive Weather Map New forecast layout! Learn more

10-Day Weather Forecast

Advertisements
Track Severe Weather on mobile